Time;durP1;ratioP1;P1;durP2;ratioP2;P2;SDS_P1;SDS_P2;PMS_P1;PMS_P2;Temp;Humidity;BMP_temperature;BMP_pressure;BME280_temperature;BME280_humidity;BME280_pressure;Samples;Min_cycle;Max_cycle;Signal;HPM_P1;HPM_P2
2024/01/14 00:00:59;;;;;;;0.20;0.20;;;;;;;6.29;73.12;101738.91;5055606;28;20092;-80
2024/01/14 00:03:25;;;;;;;0.20;0.20;;;;;;;6.29;73.45;101724.84;5056250;28;20063;-79
2024/01/14 00:05:51;;;;;;;1.60;0.55;;;;;;;6.31;73.33;101723.13;5055570;28;20456;-79
2024/01/14 00:08:18;;;;;;;1.38;0.85;;;;;;;6.24;73.14;101716.94;5055170;28;20139;-79
2024/01/14 00:10:44;;;;;;;0.40;0.40;;;;;;;6.24;73.65;101724.81;5055524;28;20032;-80
2024/01/14 00:13:10;;;;;;;0.40;0.40;;;;;;;6.22;73.46;101708.13;5055655;28;20021;-81
2024/01/14 00:15:36;;;;;;;0.20;0.20;;;;;;;6.15;73.58;101715.03;5053940;28;20095;-81
2024/01/14 00:18:03;;;;;;;1.25;1.25;;;;;;;6.06;73.80;101711.44;5055619;28;20487;-81
2024/01/14 00:20:29;;;;;;;0.38;0.38;;;;;;;6.08;73.35;101713.22;5056901;28;20036;-81
2024/01/14 00:22:56;;;;;;;0.68;0.68;;;;;;;6.06;73.66;101707.03;5057574;28;20025;-81
2024/01/14 00:25:22;;;;;;;15.65;1.65;;;;;;;5.98;73.78;101714.84;5054563;28;20049;-80
2024/01/14 00:27:48;;;;;;;0.40;0.40;;;;;;;6.04;73.52;101707.91;5054849;28;20033;-82
2024/01/14 00:30:15;;;;;;;0.73;0.60;;;;;;;5.98;73.80;101696.44;5056951;28;20059;-78
2024/01/14 00:32:41;;;;;;;1.45;1.45;;;;;;;6.02;73.79;101707.88;5062924;28;20033;-79
2024/01/14 00:35:08;;;;;;;0.75;0.75;;;;;;;6.00;74.02;101693.81;5056558;28;20025;-79
2024/01/14 00:37:35;;;;;;;0.30;0.30;;;;;;;5.95;73.74;101688.44;5046429;28;20025;-79
2024/01/14 00:40:02;;;;;;;0.82;0.82;;;;;;;5.97;73.84;101688.50;5054683;28;20446;-81
2024/01/14 00:42:28;;;;;;;0.20;0.20;;;;;;;5.90;73.78;101681.38;5055001;28;20476;-78
2024/01/14 00:44:54;;;;;;;3.35;2.15;;;;;;;5.92;73.93;101675.28;5054997;28;20025;-79
2024/01/14 00:47:20;;;;;;;0.20;0.20;;;;;;;5.84;73.93;101669.03;5052620;28;20739;-79
2024/01/14 00:49:47;;;;;;;0.90;0.90;;;;;;;5.90;73.73;101676.13;5050450;28;20025;-80
2024/01/14 00:52:13;;;;;;;2.60;2.50;;;;;;;5.85;74.08;101669.94;5044086;28;20053;-81
2024/01/14 00:54:39;;;;;;;0.77;0.77;;;;;;;5.87;73.99;101662.91;5051049;28;20033;-80
2024/01/14 00:57:07;;;;;;;0.20;0.20;;;;;;;5.89;74.14;101656.81;5049786;28;20040;-79
2024/01/14 00:59:33;;;;;;;1.60;1.05;;;;;;;5.87;74.02;101652.41;5056089;28;20024;-79
2024/01/14 01:02:00;;;;;;;0.40;0.40;;;;;;;5.91;73.95;101646.34;5057756;28;20064;-80
2024/01/14 01:04:26;;;;;;;0.85;0.85;;;;;;;5.94;73.90;101654.25;5058835;28;20040;-78
2024/01/14 01:06:52;;;;;;;10.95;1.35;;;;;;;5.91;74.34;101638.44;5061800;28;20039;-79
2024/01/14 01:09:18;;;;;;;3.60;1.40;;;;;;;5.92;74.43;101646.34;5064155;28;20033;-79
2024/01/14 01:11:45;;;;;;;1.23;1.23;;;;;;;5.89;74.76;101648.06;5063769;28;20024;-79
2024/01/14 01:14:14;;;;;;;0.20;0.20;;;;;;;5.89;74.74;101648.06;5059494;28;20025;-80
2024/01/14 01:16:40;;;;;;;0.10;0.10;;;;;;;5.96;74.42;101647.28;5052836;28;20059;-81
2024/01/14 01:19:06;;;;;;;1.58;1.48;;;;;;;5.86;74.20;101641.00;5059942;28;20128;-79
2024/01/14 01:21:32;;;;;;;0.20;0.20;;;;;;;5.88;74.09;101639.28;5054871;28;20060;-80
2024/01/14 01:23:58;;;;;;;1.17;1.17;;;;;;;5.90;73.88;101634.91;5050207;28;20040;-80
2024/01/14 01:26:25;;;;;;;0.40;0.40;;;;;;;5.89;73.89;101632.28;5058572;28;20028;-78
2024/01/14 01:28:51;;;;;;;0.38;0.38;;;;;;;5.76;73.90;101629.47;5058931;28;20029;-79
2024/01/14 01:31:18;;;;;;;0.20;0.20;;;;;;;5.82;73.95;101628.69;5053677;28;20040;-79
2024/01/14 01:33:44;;;;;;;0.75;0.75;;;;;;;5.73;73.82;101628.56;5046238;28;20036;-79
2024/01/14 01:36:10;;;;;;;1.70;1.70;;;;;;;5.70;73.81;101618.88;5043772;28;20033;-78
2024/01/14 01:38:36;;;;;;;0.22;0.22;;;;;;;5.65;73.96;101615.31;5038882;28;20029;-80
2024/01/14 01:41:03;;;;;;;2.10;1.58;;;;;;;5.57;73.85;101617.88;5055076;28;20030;-79
2024/01/14 01:43:30;;;;;;;1.55;1.38;;;;;;;5.62;73.78;101612.63;5054854;28;20056;-78
2024/01/14 01:45:56;;;;;;;1.83;1.73;;;;;;;5.57;73.95;101611.69;5057076;28;20047;-77
2024/01/14 01:48:23;;;;;;;0.30;0.30;;;;;;;5.56;73.86;101615.19;5056138;28;20040;-77
2024/01/14 01:50:51;;;;;;;1.38;1.30;;;;;;;5.57;74.12;101611.69;5052583;28;20484;-78
2024/01/14 01:53:18;;;;;;;0.77;0.77;;;;;;;5.57;73.67;101606.44;5054650;28;20086;-80
2024/01/14 01:55:44;;;;;;;0.45;0.45;;;;;;;5.50;73.65;101606.38;5049314;28;20514;-81
2024/01/14 01:58:11;;;;;;;0.77;0.77;;;;;;;5.41;73.83;101601.00;5054234;28;20048;-80
2024/01/14 02:00:38;;;;;;;0.20;0.20;;;;;;;5.40;73.67;101599.22;5049801;28;20128;-81
2024/01/14 02:03:05;;;;;;;3.33;1.95;;;;;;;5.27;74.09;101598.19;5057931;28;20032;-80
2024/01/14 02:05:34;;;;;;;3.60;2.92;;;;;;;5.30;74.02;101599.97;5056818;28;20033;-79
2024/01/14 02:08:00;;;;;;;1.08;1.08;;;;;;;5.31;74.00;101594.72;5047374;28;20090;-79
2024/01/14 02:10:26;;;;;;;0.50;0.50;;;;;;;5.27;74.15;101599.91;5052374;28;20513;-79
2024/01/14 02:12:53;;;;;;;0.20;0.20;;;;;;;5.25;74.08;101593.78;5055653;28;20037;-78
2024/01/14 02:15:19;;;;;;;1.17;1.17;;;;;;;5.20;74.20;101596.31;5055556;28;20396;-80
2024/01/14 02:17:45;;;;;;;0.28;0.28;;;;;;;5.25;73.95;101593.78;5052448;28;20025;-80
2024/01/14 02:20:14;;;;;;;0.20;0.20;;;;;;;5.18;74.48;101584.91;5046177;28;20017;-80
2024/01/14 02:22:43;;;;;;;1.05;1.05;;;;;;;5.24;74.34;101589.38;5052381;28;20029;-80
2024/01/14 02:25:10;;;;;;;1.67;1.65;;;;;;;5.21;74.37;101587.59;5056337;28;20040;-79
2024/01/14 02:27:37;;;;;;;0.20;0.20;;;;;;;5.10;74.64;101590.06;5054442;28;20067;-80
2024/01/14 02:30:05;;;;;;;1.25;0.85;;;;;;;5.10;74.82;101589.19;5054401;28;20377;-78
2024/01/14 02:32:35;;;;;;;0.60;0.60;;;;;;;5.15;74.55;101584.88;5048480;28;20079;-77
2024/01/14 02:35:02;;;;;;;0.30;0.30;;;;;;;5.03;75.10;101588.19;5054215;28;20108;-78
2024/01/14 02:37:28;;;;;;;0.20;0.20;;;;;;;5.20;74.60;101580.56;5047055;28;20037;-77
2024/01/14 02:39:54;;;;;;;0.85;0.75;;;;;;;5.24;74.54;101578.88;5048501;28;20064;-77
2024/01/14 02:42:20;;;;;;;0.20;0.20;;;;;;;5.23;74.78;101575.34;5054761;28;20040;-79
2024/01/14 02:44:46;;;;;;;1.73;1.70;;;;;;;5.28;74.65;101580.66;5053686;28;20039;-78
2024/01/14 02:47:13;;;;;;;0.40;0.40;;;;;;;5.29;74.51;101585.94;5055044;28;20029;-79
2024/01/14 02:49:39;;;;;;;0.20;0.20;;;;;;;5.34;74.63;101588.63;5054884;28;20067;-80
2024/01/14 02:52:05;;;;;;;0.77;0.77;;;;;;;5.40;74.41;101572.94;5050270;28;20116;-79
2024/01/14 02:54:31;;;;;;;0.30;0.30;;;;;;;5.39;74.44;101576.44;5051163;28;20042;-80
2024/01/14 02:56:57;;;;;;;0.35;0.35;;;;;;;5.42;74.77;101572.97;5050682;28;20033;-80
2024/01/14 02:59:24;;;;;;;1.20;0.65;;;;;;;5.49;74.85;101564.28;5057115;28;20036;-79
2024/01/14 03:01:50;;;;;;;0.20;0.20;;;;;;;5.55;74.61;101561.75;5062011;28;20086;-77
2024/01/14 03:04:16;;;;;;;0.20;0.20;;;;;;;5.57;74.59;101557.41;5060878;28;20029;-80
2024/01/14 03:06:42;;;;;;;1.13;1.13;;;;;;;5.56;74.88;101549.47;5053634;28;20033;-80
2024/01/14 03:09:09;;;;;;;0.20;0.20;;;;;;;5.63;74.92;101535.53;5052311;28;20549;-80
2024/01/14 03:11:35;;;;;;;2.17;0.95;;;;;;;5.67;74.80;101532.09;5055936;28;20450;-80
2024/01/14 03:14:02;;;;;;;0.20;0.20;;;;;;;5.69;74.46;101535.63;5056722;28;20033;-82
2024/01/14 03:16:28;;;;;;;0.40;0.40;;;;;;;5.64;74.88;101534.69;5050489;28;20135;-79
2024/01/14 03:18:54;;;;;;;0.20;0.20;;;;;;;5.66;74.61;101523.31;5056014;28;20116;-79
2024/01/14 03:21:20;;;;;;;0.20;0.20;;;;;;;5.69;74.49;101527.72;5044507;28;20104;-78
2024/01/14 03:23:48;;;;;;;0.20;0.20;;;;;;;5.66;74.53;101533.84;5046591;28;20061;-79
2024/01/14 03:26:15;;;;;;;0.45;0.45;;;;;;;5.63;74.41;101532.91;5048539;28;20490;-78
2024/01/14 03:28:41;;;;;;;1.85;1.75;;;;;;;5.67;74.43;101534.72;5058053;28;20024;-81
2024/01/14 03:31:08;;;;;;;0.55;0.55;;;;;;;5.65;74.56;101528.56;5054350;28;20546;-80
2024/01/14 03:33:34;;;;;;;0.25;0.25;;;;;;;5.66;74.44;101523.31;5054454;28;20051;-83
2024/01/14 03:36:01;;;;;;;0.30;0.30;;;;;;;5.70;74.56;101524.22;5042792;28;20041;-82
2024/01/14 03:38:27;;;;;;;0.63;0.63;;;;;;;5.68;74.54;101533.84;5043614;28;20530;-82
2024/01/14 03:40:53;;;;;;;0.20;0.20;;;;;;;5.55;74.71;101517.06;5061636;28;20029;-79
2024/01/14 03:43:19;;;;;;;0.30;0.30;;;;;;;5.60;74.74;101512.72;5065850;28;20051;-80
2024/01/14 03:45:45;;;;;;;0.20;0.20;;;;;;;5.64;74.54;101508.38;5055640;28;20566;-80
2024/01/14 03:48:12;;;;;;;1.67;1.58;;;;;;;5.54;74.75;101512.66;5055160;28;20033;-80
2024/01/14 03:50:38;;;;;;;1.88;1.77;;;;;;;5.51;74.68;101508.25;5052304;28;20507;-80
2024/01/14 03:53:04;;;;;;;0.85;0.85;;;;;;;5.54;74.62;101504.78;5056523;28;20147;-80
2024/01/14 03:55:30;;;;;;;7.95;2.75;;;;;;;5.48;74.80;101497.72;5056277;28;20495;-79
2024/01/14 03:57:58;;;;;;;0.95;0.95;;;;;;;5.54;74.99;101496.03;5056044;28;20063;-79
2024/01/14 04:00:24;;;;;;;0.25;0.25;;;;;;;5.55;74.76;101501.28;5056253;28;20024;-80
2024/01/14 04:02:50;;;;;;;0.20;0.20;;;;;;;5.46;74.83;101496.81;5054830;28;20041;-79
2024/01/14 04:05:16;;;;;;;0.20;0.20;;;;;;;5.50;74.80;101501.22;5054616;28;20040;-80
2024/01/14 04:07:43;;;;;;;0.20;0.20;;;;;;;5.49;74.80;101488.94;5050254;28;20026;-80
2024/01/14 04:10:09;;;;;;;0.20;0.20;;;;;;;5.39;74.80;101492.34;5053873;28;20026;-81
2024/01/14 04:12:40;;;;;;;1.63;1.52;;;;;;;5.46;74.74;101494.19;5051979;28;20132;-80
2024/01/14 04:15:06;;;;;;;0.20;0.20;;;;;;;5.40;74.73;101494.09;5060407;28;20038;-80
2024/01/14 04:17:33;;;;;;;0.82;0.82;;;;;;;5.41;74.80;101485.38;5067524;28;20103;-79
2024/01/14 04:20:00;;;;;;;0.40;0.40;;;;;;;5.40;74.90;101488.84;5063950;28;20083;-81
2024/01/14 04:22:26;;;;;;;1.73;1.55;;;;;;;5.44;74.63;101474.88;5044347;28;20035;-80
2024/01/14 04:24:52;;;;;;;0.20;0.20;;;;;;;5.28;74.84;101472.94;5051762;28;20558;-80
2024/01/14 04:27:18;;;;;;;1.38;1.27;;;;;;;5.35;74.67;101472.16;5049467;28;20053;-80
2024/01/14 04:29:45;;;;;;;2.60;1.17;;;;;;;5.33;74.38;101466.88;5053020;28;20554;-81
2024/01/14 04:32:11;;;;;;;0.22;0.22;;;;;;;5.29;74.41;101469.44;5053957;28;20037;-80
2024/01/14 04:34:37;;;;;;;0.50;0.50;;;;;;;5.31;74.38;101462.47;5056764;28;20106;-80
2024/01/14 04:37:04;;;;;;;0.77;0.77;;;;;;;5.34;74.38;101459.88;5053161;28;20032;-80
2024/01/14 04:39:30;;;;;;;0.20;0.20;;;;;;;5.34;74.29;101452.84;5056494;28;20121;-81
2024/01/14 04:41:57;;;;;;;0.20;0.20;;;;;;;5.41;74.23;101450.28;5055514;28;20037;-80
2024/01/14 04:44:23;;;;;;;0.30;0.30;;;;;;;5.41;73.96;101459.09;5054919;28;20029;-82
2024/01/14 04:46:49;;;;;;;4.03;2.72;;;;;;;5.49;74.14;101460.03;5055556;28;20029;-82
2024/01/14 04:49:15;;;;;;;0.50;0.50;;;;;;;5.48;73.96;101455.66;5059936;28;20488;-79
2024/01/14 04:51:41;;;;;;;0.30;0.30;;;;;;;5.43;73.85;101457.38;5058871;28;20033;-80
2024/01/14 04:54:08;;;;;;;1.50;1.50;;;;;;;5.42;74.02;101452.97;5055380;28;20025;-79
2024/01/14 04:56:34;;;;;;;0.30;0.30;;;;;;;5.34;74.02;101452.00;5053032;28;20451;-79
2024/01/14 04:59:00;;;;;;;0.32;0.32;;;;;;;5.35;74.13;101444.13;5055071;28;20045;-79
2024/01/14 05:01:26;;;;;;;0.20;0.20;;;;;;;5.31;73.94;101447.59;5052337;28;20025;-79
2024/01/14 05:03:52;;;;;;;0.20;0.20;;;;;;;5.37;73.99;101433.66;5058418;28;20035;-79
2024/01/14 05:06:19;;;;;;;0.73;0.73;;;;;;;5.26;74.06;101440.50;5056384;28;20025;-79
2024/01/14 05:08:45;;;;;;;0.30;0.30;;;;;;;5.27;74.00;101439.63;5051910;28;20055;-79
2024/01/14 05:11:11;;;;;;;0.50;0.50;;;;;;;5.32;74.03;101437.94;5047036;28;20056;-79
2024/01/14 05:13:37;;;;;;;1.90;1.80;;;;;;;5.32;74.11;101445.81;5054162;28;20492;-79
2024/01/14 05:16:03;;;;;;;0.60;0.60;;;;;;;5.32;74.01;101446.72;5053895;28;20025;-78
2024/01/14 05:18:30;;;;;;;0.20;0.20;;;;;;;5.31;74.20;101437.06;5047250;28;20079;-79
2024/01/14 05:20:57;;;;;;;0.77;0.77;;;;;;;5.36;74.13;101434.50;5056758;28;20029;-79
2024/01/14 05:23:23;;;;;;;0.20;0.20;;;;;;;5.38;74.01;101427.50;5059027;28;20033;-79
2024/01/14 05:25:49;;;;;;;1.00;1.00;;;;;;;5.39;74.03;101423.13;5058513;28;20029;-79
2024/01/14 05:28:15;;;;;;;0.70;0.70;;;;;;;5.37;74.10;101425.75;5058169;28;20029;-79
2024/01/14 05:30:41;;;;;;;0.20;0.20;;;;;;;5.43;74.07;101410.06;5054314;28;20037;-79
2024/01/14 05:33:07;;;;;;;3.30;1.35;;;;;;;5.40;74.02;101409.13;5061714;28;20033;-78
2024/01/14 05:35:34;;;;;;;0.90;0.90;;;;;;;5.42;74.04;101402.13;5064984;28;20061;-79
2024/01/14 05:38:00;;;;;;;0.15;0.15;;;;;;;5.36;74.03;101397.72;5058748;28;20098;-79
2024/01/14 05:40:27;;;;;;;5.00;1.48;;;;;;;5.34;73.98;101396.81;5059950;28;20439;-80
2024/01/14 05:42:53;;;;;;;0.50;0.50;;;;;;;5.30;74.28;101395.88;5060185;28;20037;-80
2024/01/14 05:45:19;;;;;;;4.53;2.00;;;;;;;5.35;74.22;101395.94;5062095;28;20048;-79
2024/01/14 05:47:45;;;;;;;1.25;1.25;;;;;;;5.33;74.22;101395.03;5054825;28;20029;-80
2024/01/14 05:50:12;;;;;;;0.20;0.20;;;;;;;5.37;74.00;101386.34;5056810;28;20090;-79
2024/01/14 05:52:39;;;;;;;0.20;0.20;;;;;;;5.32;74.13;101381.03;5050213;28;20100;-78
2024/01/14 05:55:06;;;;;;;0.22;0.22;;;;;;;5.28;74.08;101375.72;5055001;28;20048;-78
2024/01/14 05:57:32;;;;;;;0.47;0.47;;;;;;;5.26;74.41;101385.31;5051598;28;20377;-79
2024/01/14 05:59:58;;;;;;;0.20;0.20;;;;;;;5.24;74.33;101371.31;5053326;28;20025;-78
2024/01/14 06:02:24;;;;;;;0.95;0.95;;;;;;;5.26;74.46;101374.81;5050569;28;20044;-78
2024/01/14 06:04:51;;;;;;;1.30;1.27;;;;;;;5.21;74.45;101372.16;5050049;28;20052;-79
2024/01/14 06:07:17;;;;;;;0.60;0.60;;;;;;;5.23;74.50;101361.66;5056152;28;20530;-78
2024/01/14 06:09:43;;;;;;;0.68;0.68;;;;;;;5.16;74.66;101363.34;5056739;28;20035;-78
2024/01/14 06:12:09;;;;;;;3.80;1.20;;;;;;;5.22;74.74;101365.16;5055847;28;20033;-80
2024/01/14 06:14:36;;;;;;;0.28;0.28;;;;;;;5.13;74.81;101353.66;5059488;28;20036;-78
2024/01/14 06:17:03;;;;;;;0.20;0.20;;;;;;;5.16;74.81;101350.22;5066981;28;20033;-79
2024/01/14 06:19:29;;;;;;;0.50;0.50;;;;;;;5.14;74.63;101355.44;5062085;28;20025;-80
2024/01/14 06:21:55;;;;;;;1.25;1.25;;;;;;;5.05;74.89;101347.47;5057791;28;20039;-80
2024/01/14 06:24:21;;;;;;;0.20;0.20;;;;;;;5.17;74.74;101344.06;5060449;28;20389;-80
2024/01/14 06:26:47;;;;;;;0.32;0.32;;;;;;;5.14;74.59;101339.66;5058233;28;20063;-80
2024/01/14 06:29:14;;;;;;;0.43;0.43;;;;;;;5.18;74.48;101336.22;5057824;28;20039;-80
2024/01/14 06:31:45;;;;;;;0.40;0.40;;;;;;;5.19;74.60;101337.97;5055709;28;20587;-80
2024/01/14 06:34:11;;;;;;;3.67;3.40;;;;;;;5.19;74.25;101330.09;5057018;28;20032;-80
2024/01/14 06:36:37;;;;;;;1.00;0.95;;;;;;;5.19;74.17;101322.19;5056701;28;20492;-80
2024/01/14 06:39:05;;;;;;;0.20;0.20;;;;;;;5.19;74.30;101319.56;5057617;28;20032;-80
2024/01/14 06:41:31;;;;;;;0.43;0.43;;;;;;;5.15;74.53;101324.81;5057870;28;20032;-80
2024/01/14 06:43:58;;;;;;;0.20;0.20;;;;;;;5.13;74.21;101324.78;5058562;28;20488;-81
2024/01/14 06:46:24;;;;;;;0.22;0.22;;;;;;;5.03;74.49;101320.28;5057541;28;20035;-81
2024/01/14 06:48:50;;;;;;;0.20;0.20;;;;;;;5.06;74.62;101312.47;5060609;28;20036;-80
2024/01/14 06:51:16;;;;;;;0.30;0.30;;;;;;;5.04;74.57;101315.94;5071504;28;20036;-79
2024/01/14 06:53:42;;;;;;;2.20;2.05;;;;;;;5.07;74.24;101311.59;5063498;28;20571;-81
2024/01/14 06:56:09;;;;;;;0.63;0.63;;;;;;;5.10;74.16;101311.63;5056934;28;20048;-81
2024/01/14 06:58:35;;;;;;;1.42;1.33;;;;;;;5.02;74.40;101308.91;5057851;28;20070;-80
2024/01/14 07:01:03;;;;;;;0.20;0.20;;;;;;;5.08;74.49;101313.34;5055001;28;20059;-81
2024/01/14 07:03:30;;;;;;;1.23;0.68;;;;;;;4.96;74.51;101308.84;5060068;28;20021;-79
2024/01/14 07:05:56;;;;;;;0.15;0.15;;;;;;;5.07;74.31;101308.97;5059492;28;20021;-80
2024/01/14 07:08:23;;;;;;;2.05;0.95;;;;;;;5.09;74.43;101308.97;5056583;28;20037;-80
2024/01/14 07:10:49;;;;;;;0.20;0.20;;;;;;;5.14;74.21;101312.53;5059667;28;20388;-80
2024/01/14 07:13:17;;;;;;;0.20;0.20;;;;;;;5.11;74.44;101312.47;5057365;28;20606;-80
2024/01/14 07:15:44;;;;;;;0.77;0.77;;;;;;;5.03;74.86;101312.41;5055955;28;20047;-81
2024/01/14 07:18:10;;;;;;;0.43;0.43;;;;;;;5.07;75.00;101314.22;5055485;28;20037;-80
2024/01/14 07:20:36;;;;;;;7.18;1.50;;;;;;;5.10;75.03;101314.25;5057989;28;20031;-79
2024/01/14 07:23:02;;;;;;;0.82;0.82;;;;;;;5.12;74.78;101315.16;5056457;28;20025;-80
2024/01/14 07:25:28;;;;;;;0.95;0.95;;;;;;;5.17;74.47;101318.69;5057354;28;20028;-80
2024/01/14 07:27:55;;;;;;;0.70;0.65;;;;;;;5.17;74.60;101316.06;5056852;28;20045;-81
2024/01/14 07:30:22;;;;;;;0.13;0.13;;;;;;;5.15;74.50;101317.78;5056355;28;20408;-81
2024/01/14 07:32:48;;;;;;;3.70;1.75;;;;;;;5.22;74.55;101315.22;5055258;28;20032;-80
2024/01/14 07:35:14;;;;;;;0.20;0.20;;;;;;;5.25;74.56;101315.28;5054937;28;20039;-80
2024/01/14 07:37:40;;;;;;;0.60;0.60;;;;;;;5.24;74.65;101313.50;5056283;28;20036;-80
2024/01/14 07:40:07;;;;;;;0.20;0.20;;;;;;;5.20;74.80;101307.34;5056043;28;20029;-81
2024/01/14 07:42:33;;;;;;;1.10;1.10;;;;;;;5.26;74.55;101317.00;5054681;28;20111;-82
2024/01/14 07:44:59;;;;;;;1.00;1.00;;;;;;;5.21;74.86;101309.09;5056443;28;20068;-82
2024/01/14 07:47:25;;;;;;;8.05;2.40;;;;;;;5.22;74.64;101309.97;5057131;28;20028;-81
2024/01/14 07:49:52;;;;;;;2.97;1.40;;;;;;;5.30;74.45;101313.56;5056079;28;20412;-81
2024/01/14 07:52:18;;;;;;;0.20;0.20;;;;;;;5.21;74.92;101308.22;5055327;28;20104;-83
2024/01/14 07:54:44;;;;;;;0.57;0.57;;;;;;;5.27;74.73;101300.38;5056016;28;20055;-82
2024/01/14 07:57:11;;;;;;;0.10;0.10;;;;;;;5.28;74.63;101310.94;5055629;28;20037;-82
2024/01/14 07:59:37;;;;;;;0.20;0.20;;;;;;;5.26;75.07;101314.38;5055297;28;20028;-82
2024/01/14 08:02:03;;;;;;;0.43;0.43;;;;;;;5.27;74.85;101310.91;5056125;28;20032;-81
2024/01/14 08:04:29;;;;;;;1.55;0.93;;;;;;;5.19;74.87;101316.09;5056608;28;20025;-81
2024/01/14 08:06:56;;;;;;;0.20;0.20;;;;;;;5.25;74.59;101316.13;5071978;28;20025;-81
2024/01/14 08:09:22;;;;;;;0.55;0.55;;;;;;;5.13;74.92;101311.63;5072501;28;20047;-82
2024/01/14 08:11:48;;;;;;;0.60;0.60;;;;;;;5.17;74.94;101318.69;5063679;28;20522;-79
2024/01/14 08:14:14;;;;;;;0.50;0.50;;;;;;;5.19;75.01;101316.09;5060661;28;20040;-83
2024/01/14 08:16:40;;;;;;;0.25;0.25;;;;;;;5.19;74.97;101311.69;5060644;28;20055;-83
2024/01/14 08:19:07;;;;;;;0.30;0.30;;;;;;;5.15;75.29;101309.91;5060890;28;20060;-82
2024/01/14 08:21:33;;;;;;;0.20;0.20;;;;;;;5.25;74.82;101310.03;5060700;28;20032;-82
2024/01/14 08:24:03;;;;;;;0.40;0.40;;;;;;;5.23;74.87;101312.59;5060893;28;20033;-82
2024/01/14 08:26:29;;;;;;;2.53;2.33;;;;;;;5.29;74.80;101303.91;5057824;28;20446;-82
2024/01/14 08:28:56;;;;;;;0.85;0.85;;;;;;;5.35;74.70;101303.97;5059628;28;20025;-82
2024/01/14 08:31:22;;;;;;;0.20;0.20;;;;;;;5.39;74.53;101297.00;5060560;28;20029;-83
2024/01/14 08:33:48;;;;;;;0.10;0.10;;;;;;;5.32;74.56;101301.31;5059708;28;20627;-82
2024/01/14 08:36:14;;;;;;;0.20;0.20;;;;;;;5.34;74.59;101295.19;5062910;28;20029;-82
2024/01/14 08:38:41;;;;;;;0.20;0.20;;;;;;;5.31;74.86;101294.31;5062421;28;20129;-83
2024/01/14 08:41:07;;;;;;;0.22;0.22;;;;;;;5.33;74.86;101292.56;5062025;28;20552;-81
2024/01/14 08:43:33;;;;;;;2.58;2.42;;;;;;;5.34;74.79;101289.06;5062573;28;20120;-82
2024/01/14 08:46:02;;;;;;;0.20;0.20;;;;;;;5.45;74.82;101287.41;5061717;28;20144;-82
2024/01/14 08:48:28;;;;;;;8.85;2.60;;;;;;;5.49;74.48;101283.06;5069516;28;20029;-82
2024/01/14 08:50:55;;;;;;;1.00;0.95;;;;;;;5.46;74.58;101276.03;5074555;28;20079;-83
2024/01/14 08:53:21;;;;;;;0.20;0.20;;;;;;;5.55;74.27;101271.72;5070143;28;20021;-82
2024/01/14 08:55:48;;;;;;;1.85;1.75;;;;;;;5.53;74.48;101269.06;5064832;28;20044;-82
2024/01/14 08:58:14;;;;;;;1.23;1.13;;;;;;;5.54;74.52;101267.34;5064681;28;20037;-81
2024/01/14 09:00:40;;;;;;;0.68;0.68;;;;;;;5.56;74.40;101268.22;5062105;28;20051;-82
2024/01/14 09:03:06;;;;;;;0.20;0.20;;;;;;;5.52;74.49;101267.34;5057862;28;20600;-79
2024/01/14 09:05:33;;;;;;;0.20;0.20;;;;;;;5.52;74.66;101262.06;5057782;28;20029;-80
2024/01/14 09:07:59;;;;;;;2.33;1.77;;;;;;;5.56;74.42;101261.22;5057443;28;20029;-80
2024/01/14 09:10:25;;;;;;;1.95;1.88;;;;;;;5.51;74.51;101250.66;5059629;28;20470;-80
2024/01/14 09:12:51;;;;;;;0.22;0.22;;;;;;;5.56;74.67;101255.06;5057990;28;20044;-80
2024/01/14 09:15:17;;;;;;;0.95;0.90;;;;;;;5.60;74.42;101246.34;5058266;28;20037;-81
2024/01/14 09:17:43;;;;;;;0.35;0.35;;;;;;;5.63;74.74;101251.63;5056740;28;20032;-80
2024/01/14 09:20:10;;;;;;;2.05;1.85;;;;;;;5.62;74.80;101249.84;5068030;28;20085;-81
2024/01/14 09:22:36;;;;;;;0.30;0.30;;;;;;;5.63;74.59;101249.00;5074440;28;20005;-81
2024/01/14 09:25:02;;;;;;;1.75;1.65;;;;;;;5.63;74.66;101243.72;5067990;28;20048;-81
2024/01/14 09:27:30;;;;;;;0.20;0.20;;;;;;;5.64;75.05;101245.50;5067113;28;20059;-82
2024/01/14 09:29:57;;;;;;;0.73;0.73;;;;;;;5.66;75.07;101241.13;5069413;28;20048;-82
2024/01/14 09:32:23;;;;;;;12.88;1.88;;;;;;;5.69;74.65;101243.78;5064127;28;20592;-82
2024/01/14 09:34:49;;;;;;;2.20;1.35;;;;;;;5.74;74.83;101244.69;5063819;28;20024;-81
2024/01/14 09:37:15;;;;;;;0.10;0.10;;;;;;;5.82;74.74;101250.00;5063298;28;20168;-82
2024/01/14 09:39:42;;;;;;;0.40;0.40;;;;;;;5.76;75.02;101253.47;5063616;28;20033;-82
2024/01/14 09:44:47;;;;;;;0.30;0.30;;;;;;;5.87;74.44;101236.88;5114820;27;20135;-78
2024/01/14 09:47:14;;;;;;;0.20;0.20;;;;;;;5.88;74.56;101228.13;5097703;28;20124;-80
2024/01/14 09:49:41;;;;;;;0.95;0.95;;;;;;;5.81;74.69;101232.47;5095908;28;20032;-79
2024/01/14 09:52:09;;;;;;;2.28;2.08;;;;;;;5.89;74.49;101229.88;5094775;28;20531;-79
2024/01/14 09:54:37;;;;;;;2.17;1.98;;;;;;;5.82;74.63;101228.97;5096487;28;20028;-79
2024/01/14 09:57:11;;;;;;;1.00;1.00;;;;;;;5.95;74.26;101236.03;5098651;28;20061;-78
2024/01/14 09:59:39;;;;;;;0.30;0.30;;;;;;;5.98;74.31;101237.81;5099486;28;20469;-79
2024/01/14 10:02:06;;;;;;;0.57;0.57;;;;;;;5.95;74.19;101236.03;5107514;28;20036;-79
2024/01/14 10:04:32;;;;;;;0.20;0.20;;;;;;;5.97;73.92;101234.31;5094230;28;20020;-79
2024/01/14 10:06:59;;;;;;;0.50;0.50;;;;;;;6.01;73.90;101234.34;5094940;28;20410;-80
2024/01/14 10:09:25;;;;;;;0.85;0.85;;;;;;;6.01;74.29;101232.59;5094746;28;20024;-80
2024/01/14 10:11:51;;;;;;;0.85;0.85;;;;;;;5.95;73.74;101235.16;5094396;28;20024;-80
2024/01/14 10:14:24;;;;;;;0.15;0.15;;;;;;;5.95;74.24;101229.91;5095023;28;20036;-79
2024/01/14 10:16:50;;;;;;;;;;;;;;;6.14;73.25;101226.53;5097758;28;20036;-78
2024/01/14 10:19:16;;;;;;;0.20;0.20;;;;;;;5.99;73.41;101229.06;5094910;28;19967;-79
2024/01/14 10:21:42;;;;;;;4.47;0.82;;;;;;;6.01;73.62;101221.19;5096707;28;20123;-79
2024/01/14 10:24:10;;;;;;;0.80;0.80;;;;;;;5.94;73.40;101217.63;5097713;28;20056;-79
2024/01/14 10:26:36;;;;;;;0.85;0.85;;;;;;;6.01;73.61;101210.66;5097038;28;20388;-79
2024/01/14 10:29:03;;;;;;;0.15;0.15;;;;;;;5.89;74.04;101212.34;5096904;28;20031;-79
2024/01/14 10:31:31;;;;;;;1.52;1.50;;;;;;;6.00;73.65;101207.16;5096018;28;20028;-80
2024/01/14 10:34:00;;;;;;;0.30;0.30;;;;;;;6.00;73.59;101204.53;5094645;28;20020;-80
2024/01/14 10:36:28;;;;;;;3.00;1.35;;;;;;;5.95;73.25;101198.34;5095706;28;20032;-81
2024/01/14 10:38:57;;;;;;;0.20;0.20;;;;;;;6.05;73.33;101192.28;5109105;28;20020;-81
2024/01/14 10:41:24;;;;;;;0.20;0.20;;;;;;;5.95;73.67;101199.22;5102020;28;20028;-81
2024/01/14 10:43:51;;;;;;;0.60;0.60;;;;;;;5.90;73.55;101193.06;5101415;28;20100;-81
2024/01/14 10:46:17;;;;;;;0.20;0.20;;;;;;;5.79;73.16;101190.38;5103057;28;20032;-80
2024/01/14 10:48:49;;;;;;;0.65;0.65;;;;;;;5.96;73.38;101181.69;5104623;28;20028;-80
2024/01/14 10:51:20;;;;;;;0.30;0.30;;;;;;;5.86;73.58;101185.13;5098634;28;20086;-82
2024/01/14 10:54:19;;;;;;;0.40;0.40;;;;;;;5.91;73.49;101180.81;5097878;28;20575;-82
2024/01/14 10:56:50;;;;;;;0.20;0.20;;;;;;;5.76;73.55;101182.47;5084167;28;20036;-82
2024/01/14 10:59:21;;;;;;;0.50;0.50;;;;;;;5.81;73.66;101175.47;5085932;28;20025;-82
2024/01/14 11:01:53;;;;;;;1.65;1.55;;;;;;;5.78;73.79;101180.75;5083923;28;20854;-81
2024/01/14 11:04:20;;;;;;;0.30;0.30;;;;;;;5.71;73.70;101172.78;5082377;28;20455;-81
2024/01/14 11:06:47;;;;;;;0.20;0.20;;;;;;;5.76;74.10;101166.69;5083080;28;20052;-80
2024/01/14 11:09:13;;;;;;;0.70;0.70;;;;;;;5.76;73.95;101171.97;5083758;28;20024;-79
2024/01/14 11:11:48;;;;;;;0.10;0.10;;;;;;;5.67;74.32;101159.66;5082111;28;20036;-79
2024/01/14 11:14:22;;;;;;;0.50;0.50;;;;;;;5.40;74.80;101160.34;5082938;28;20020;-79
2024/01/14 11:19:36;;;;;;;0.85;0.85;;;;;;;5.58;74.82;101141.22;5084175;28;20508;-80
2024/01/14 11:22:17;;;;;;;1.27;1.00;;;;;;;5.61;74.70;101138.59;5064003;28;20051;-80
2024/01/14 11:24:44;;;;;;;0.20;0.20;;;;;;;5.65;74.56;101128.97;5063156;28;20077;-83
2024/01/14 11:27:10;;;;;;;0.30;0.30;;;;;;;5.63;74.45;101138.59;5055725;28;20021;-81
2024/01/14 11:29:39;;;;;;;0.63;0.63;;;;;;;5.55;74.77;101119.28;5051261;28;20110;-81
2024/01/14 11:34:51;;;;;;;1.80;1.70;;;;;;;5.57;74.52;101102.66;5118906;27;20383;-81
2024/01/14 11:37:39;;;;;;;0.30;0.30;;;;;;;5.64;74.43;101098.28;5114514;28;20043;-81
2024/01/14 11:47:57;;;;;;;0.52;0.45;;;;;;;5.50;74.57;101092.97;5087755;27;20525;-81